createdAt,value
2018-06-08T00:02:02.249Z,32.33
2018-06-08T00:04:32.451Z,40.33
2018-06-08T00:07:02.772Z,43.03
2018-06-08T00:09:33.351Z,52.20
2018-06-08T00:12:04.221Z,44.03
2018-06-08T00:14:34.816Z,45.10
2018-06-08T00:17:05.295Z,43.40
2018-06-08T00:19:35.414Z,59.83
2018-06-08T00:22:06.211Z,55.13
2018-06-08T00:24:36.996Z,49.17
2018-06-08T00:27:07.273Z,44.33
2018-06-08T00:29:37.788Z,39.70
2018-06-08T00:32:09.022Z,41.03
2018-06-08T00:34:39.268Z,51.67
2018-06-08T00:37:09.625Z,43.13
2018-06-08T00:39:40.515Z,53.97
2018-06-08T00:42:11.113Z,40.60
2018-06-08T00:44:41.739Z,51.10
2018-06-08T00:47:11.921Z,41.07
2018-06-08T00:49:42.270Z,44.53
2018-06-08T00:52:12.461Z,51.87
2018-06-08T00:54:43.864Z,54.83
2018-06-08T00:57:14.647Z,51.80
2018-06-08T00:59:44.962Z,52.30
2018-06-08T01:02:15.166Z,46.40
2018-06-08T01:04:46.576Z,45.43
2018-06-08T01:07:16.891Z,53.00
2018-06-08T01:09:47.071Z,48.97
2018-06-08T01:12:17.282Z,64.03
2018-06-08T01:14:47.450Z,54.17
2018-06-08T01:17:17.552Z,51.03
2018-06-08T01:19:47.984Z,68.30
2018-06-08T01:22:18.280Z,48.77
2018-06-08T01:24:48.600Z,52.63
2018-06-08T01:27:18.892Z,58.90
2018-06-08T01:29:49.113Z,52.93
2018-06-08T01:32:19.618Z,71.07
2018-06-08T01:34:49.853Z,55.00
2018-06-08T01:37:20.613Z,42.37
2018-06-08T01:39:50.863Z,62.57
2018-06-08T01:42:21.041Z,64.60
2018-06-08T01:44:51.176Z,57.27
2018-06-08T01:47:22.404Z,59.47
2018-06-08T01:49:52.739Z,54.97
2018-06-08T01:52:22.944Z,62.50
2018-06-08T01:54:53.179Z,49.07
2018-06-08T01:57:24.080Z,54.60
2018-06-08T01:59:55.097Z,47.80
2018-06-08T02:02:25.612Z,54.83
2018-06-08T02:04:56.192Z,55.80
2018-06-08T02:07:27.055Z,59.03
2018-06-08T02:09:57.292Z,55.30
2018-06-08T02:12:27.574Z,60.67
2018-06-08T02:14:57.969Z,59.33
2018-06-08T02:17:28.468Z,49.35
2018-06-08T02:19:58.669Z,61.90
2018-06-08T02:22:28.893Z,70.33
2018-06-08T02:24:59.445Z,64.70
2018-06-08T02:27:29.733Z,54.40
2018-06-08T02:29:59.748Z,58.80
2018-06-08T02:32:30.116Z,84.57
2018-06-08T02:35:00.859Z,54.87
2018-06-08T02:37:31.207Z,60.60
2018-06-08T02:40:02.376Z,52.50
2018-06-08T02:42:32.621Z,61.15
2018-06-08T02:45:02.704Z,57.93
2018-06-08T02:47:32.861Z,60.07
2018-06-08T02:50:03.486Z,54.93
2018-06-08T02:52:33.948Z,51.10
2018-06-08T02:55:05.141Z,62.17
2018-06-08T02:57:35.365Z,58.25
2018-06-08T03:00:05.724Z,61.87
2018-06-08T03:02:35.982Z,49.73
2018-06-08T03:05:06.332Z,63.50
2018-06-08T03:07:36.605Z,54.50
2018-06-08T03:10:06.963Z,53.40
2018-06-08T03:12:37.272Z,54.73
2018-06-08T03:15:07.618Z,56.23
2018-06-08T03:17:37.772Z,65.78
2018-06-08T03:20:08.448Z,75.80
2018-06-08T03:22:38.679Z,106.73
2018-06-08T03:25:09.532Z,52.43
2018-06-08T03:27:40.139Z,49.53
2018-06-08T03:30:10.409Z,61.20
2018-06-08T03:32:40.628Z,52.53
2018-06-08T03:35:10.757Z,48.50
2018-06-08T03:37:41.225Z,49.93
2018-06-08T03:40:11.344Z,49.03
2018-06-08T03:42:41.500Z,59.60
2018-06-08T03:45:11.711Z,48.97
2018-06-08T03:47:43.108Z,61.83
2018-06-08T03:50:13.268Z,52.40
2018-06-08T03:52:44.931Z,60.13
2018-06-08T03:55:15.144Z,65.97
2018-06-08T03:57:46.021Z,58.23
2018-06-08T04:00:16.204Z,53.77
2018-06-08T04:02:47.124Z,71.73
2018-06-08T04:05:17.671Z,47.00
2018-06-08T04:07:48.649Z,62.40
2018-06-08T04:10:18.887Z,73.63
2018-06-08T04:12:50.851Z,51.20
2018-06-08T04:15:21.251Z,53.97
2018-06-08T04:17:51.729Z,71.63
2018-06-08T04:20:22.024Z,64.00
2018-06-08T04:22:52.604Z,67.87
2018-06-08T04:25:22.827Z,59.90
2018-06-08T04:27:53.279Z,59.10
2018-06-08T04:30:24.352Z,46.80
2018-06-08T04:32:54.750Z,44.70
2018-06-08T04:35:24.928Z,42.53
2018-06-08T04:37:55.317Z,38.80
2018-06-08T04:40:26.220Z,37.00
2018-06-08T04:42:56.477Z,36.57
2018-06-08T04:45:26.645Z,38.50
2018-06-08T04:47:57.529Z,36.67
2018-06-08T04:50:28.089Z,34.87
2018-06-08T04:52:59.593Z,40.20
2018-06-08T04:55:29.738Z,41.20
2018-06-08T04:57:59.981Z,46.10
2018-06-08T05:00:30.039Z,43.00
2018-06-08T05:03:00.464Z,43.03
2018-06-08T05:05:30.729Z,42.43
2018-06-08T05:08:02.505Z,41.70
2018-06-08T05:10:32.933Z,36.30
2018-06-08T05:13:03.176Z,39.50
2018-06-08T05:15:33.566Z,44.30
2018-06-08T05:18:04.274Z,32.90
2018-06-08T05:20:34.512Z,44.67
2018-06-08T05:23:05.758Z,37.00
2018-06-08T05:25:35.972Z,43.73
2018-06-08T05:28:07.448Z,40.80
2018-06-08T05:30:37.696Z,38.93
2018-06-08T05:33:07.827Z,32.97
2018-06-08T05:35:38.677Z,35.70
2018-06-08T05:38:08.973Z,49.97
2018-06-08T05:40:39.295Z,35.83
2018-06-08T05:43:09.570Z,35.20
2018-06-08T05:45:40.661Z,41.03
2018-06-08T05:48:10.912Z,37.03
2018-06-08T05:50:41.005Z,45.43
2018-06-08T05:53:11.944Z,51.00
2018-06-08T05:55:42.186Z,37.43
2018-06-08T05:58:12.678Z,40.10
2018-06-08T06:00:43.032Z,44.60
2018-06-08T06:03:13.515Z,44.20
2018-06-08T06:05:43.839Z,45.80
2018-06-08T06:08:14.045Z,32.43
2018-06-08T06:10:44.205Z,42.67
2018-06-08T06:13:14.520Z,37.00
2018-06-08T06:15:44.752Z,37.57
2018-06-08T06:18:15.377Z,34.93
2018-06-08T06:20:46.010Z,39.07
2018-06-08T06:23:16.180Z,34.27
2018-06-08T06:25:47.084Z,30.40
2018-06-08T06:28:17.543Z,46.43
2018-06-08T06:30:47.716Z,31.37
2018-06-08T06:33:17.659Z,33.43
2018-06-08T06:35:47.881Z,37.70
2018-06-08T06:38:18.132Z,27.87
2018-06-08T06:40:48.296Z,31.57
2018-06-08T06:43:18.805Z,35.97
2018-06-08T06:45:49.226Z,35.87
2018-06-08T06:48:19.712Z,28.90
2018-06-08T06:50:50.400Z,38.93
2018-06-08T06:53:20.965Z,35.63
2018-06-08T06:55:51.271Z,41.80
2018-06-08T06:58:22.093Z,34.40
2018-06-08T07:00:52.297Z,46.40
2018-06-08T07:03:22.895Z,35.00
2018-06-08T07:05:52.993Z,32.57
2018-06-08T07:08:23.492Z,42.73
2018-06-08T07:10:54.008Z,41.60
2018-06-08T07:13:24.332Z,37.57
2018-06-08T07:15:54.685Z,35.57
2018-06-08T07:18:25.084Z,40.13
2018-06-08T07:20:56.245Z,42.10
2018-06-08T07:23:26.312Z,40.50
2018-06-08T07:25:56.537Z,256.97
2018-06-08T07:28:26.736Z,165.40
2018-06-08T07:30:56.932Z,97.73
2018-06-08T07:33:27.251Z,141.67
2018-06-08T07:35:57.468Z,62.57
2018-06-08T07:38:27.624Z,244.63
2018-06-08T07:40:57.839Z,123.50
2018-06-08T07:43:29.005Z,231.40
2018-06-08T07:45:59.886Z,271.23
2018-06-08T07:48:30.683Z,172.83
2018-06-08T07:51:01.277Z,173.67
2018-06-08T07:53:31.721Z,253.53
2018-06-08T07:56:02.336Z,298.47
2018-06-08T07:58:32.960Z,71.77
2018-06-08T08:01:03.184Z,43.17
2018-06-08T08:03:33.433Z,46.27
2018-06-08T08:06:03.954Z,174.47
2018-06-08T08:08:34.192Z,58.87
2018-06-08T08:11:04.369Z,33.47
2018-06-08T08:13:34.565Z,31.10
2018-06-08T08:16:05.963Z,32.23
2018-06-08T08:18:36.090Z,29.97
2018-06-08T08:21:07.731Z,39.27
2018-06-08T08:23:37.947Z,239.13
2018-06-08T08:26:08.220Z,29.50
2018-06-08T08:28:39.353Z,32.60
2018-06-08T08:31:09.626Z,29.03
2018-06-08T08:33:39.914Z,31.63
2018-06-08T08:36:11.082Z,38.40
2018-06-08T08:38:41.980Z,288.97
2018-06-08T08:41:12.611Z,100.13
2018-06-08T08:43:42.980Z,270.07
2018-06-08T08:46:13.350Z,87.17
2018-06-08T08:48:43.837Z,39.97
2018-06-08T08:51:14.284Z,28.70
2018-06-08T08:53:44.583Z,31.73
2018-06-08T08:56:15.410Z,32.43
2018-06-08T08:58:45.489Z,32.43
2018-06-08T09:01:15.831Z,31.37
2018-06-08T09:03:46.497Z,36.90
2018-06-08T09:06:16.664Z,35.53
2018-06-08T09:08:46.855Z,37.50
2018-06-08T09:11:17.555Z,29.27
2018-06-08T09:13:47.374Z,31.93
2018-06-08T09:16:17.644Z,36.40
2018-06-08T09:18:47.901Z,116.10
2018-06-08T09:21:18.137Z,35.40
2018-06-08T09:23:49.317Z,58.50
2018-06-08T09:26:19.916Z,39.90
2018-06-08T09:28:50.379Z,153.90
2018-06-08T09:31:20.621Z,133.70
2018-06-08T09:33:50.915Z,41.67
2018-06-08T09:36:21.892Z,33.10
2018-06-08T09:38:52.186Z,27.23
2018-06-08T09:41:22.670Z,23.03
2018-06-08T09:43:53.492Z,26.63
2018-06-08T09:46:24.257Z,29.70
2018-06-08T09:48:55.117Z,27.60
2018-06-08T09:51:25.188Z,21.03
2018-06-08T09:53:56.048Z,34.57
2018-06-08T09:56:27.052Z,25.97
2018-06-08T09:58:57.777Z,19.90
2018-06-08T10:01:28.087Z,27.70
2018-06-08T10:03:58.295Z,22.97
2018-06-08T10:06:28.637Z,32.30
2018-06-08T10:08:58.940Z,22.30
2018-06-08T10:11:29.863Z,19.40
2018-06-08T10:14:00.603Z,19.03
2018-06-08T10:16:31.658Z,20.47
2018-06-08T10:19:02.103Z,16.73
2018-06-08T10:21:32.314Z,25.20
2018-06-08T10:24:03.780Z,13.83
2018-06-08T10:26:33.931Z,18.73
2018-06-08T10:29:04.416Z,17.40
2018-06-08T10:31:35.128Z,20.90
2018-06-08T10:34:05.423Z,13.53
2018-06-08T10:36:34.449Z,503.10
2018-06-08T10:39:03.616Z,573.50
2018-06-08T10:41:32.665Z,224.57
2018-06-08T10:44:01.731Z,693.07
2018-06-08T10:46:30.971Z,438.07
2018-06-08T10:49:00.022Z,592.97
2018-06-08T10:51:29.191Z,553.80
2018-06-08T10:53:58.208Z,281.07
2018-06-08T10:56:27.332Z,77.67
2018-06-08T10:58:56.345Z,153.47
2018-06-08T11:01:25.401Z,26.13
2018-06-08T11:03:54.694Z,24.80
2018-06-08T11:06:23.901Z,18.80
2018-06-08T11:08:53.760Z,16.00
2018-06-08T11:11:22.812Z,17.33
2018-06-08T11:13:51.985Z,20.43
2018-06-08T11:16:21.104Z,17.90
2018-06-08T11:18:50.700Z,14.90
2018-06-08T11:21:19.828Z,15.60
2018-06-08T11:23:49.388Z,21.33
2018-06-08T11:26:18.850Z,26.80
2018-06-08T11:28:48.459Z,17.90
2018-06-08T11:31:17.476Z,13.27
2018-06-08T11:33:47.110Z,16.23
2018-06-08T11:36:16.319Z,11.70
2018-06-08T11:38:45.455Z,14.90
2018-06-08T11:41:14.714Z,12.23
2018-06-08T11:43:43.937Z,12.03
2018-06-08T11:46:12.904Z,12.33
2018-06-08T11:48:42.697Z,15.83
2018-06-08T11:51:11.828Z,24.70
2018-06-08T11:53:40.917Z,13.93
2018-06-08T11:56:10.036Z,14.60
2018-06-08T11:58:38.996Z,12.33
2018-06-08T12:01:08.580Z,20.37
2018-06-08T12:03:37.688Z,11.90
2018-06-08T12:06:06.712Z,11.40
2018-06-08T12:08:36.136Z,14.23
2018-06-08T12:11:05.211Z,15.30
2018-06-08T12:13:34.305Z,15.83
2018-06-08T12:16:03.773Z,14.50
2018-06-08T12:18:33.024Z,15.47
2018-06-08T12:21:02.083Z,11.40
2018-06-08T12:23:31.308Z,11.60
2018-06-08T12:26:01.216Z,18.63
2018-06-08T12:28:30.810Z,13.10
2018-06-08T12:30:59.905Z,11.07
2018-06-08T12:33:29.997Z,8.97
2018-06-08T12:35:59.113Z,14.20
2018-06-08T12:38:28.292Z,10.60
2018-06-08T12:40:57.520Z,9.00
2018-06-08T12:43:26.580Z,9.13
2018-06-08T12:45:55.985Z,9.20
2018-06-08T12:48:24.988Z,8.03
2018-06-08T12:50:54.734Z,7.57
2018-06-08T12:53:23.803Z,12.70
2018-06-08T12:55:53.149Z,12.90
2018-06-08T12:58:22.617Z,15.40
2018-06-08T13:00:51.690Z,11.30
2018-06-08T13:03:20.810Z,9.00
2018-06-08T13:05:50.608Z,8.10
2018-06-08T13:08:19.668Z,14.80
2018-06-08T13:10:48.694Z,11.33
2018-06-08T13:13:17.787Z,13.13
2018-06-08T13:15:46.958Z,10.50
2018-06-08T13:18:16.070Z,8.03
2018-06-08T13:20:45.186Z,6.83
2018-06-08T13:23:14.362Z,13.13
2018-06-08T13:25:43.515Z,14.23
2018-06-08T13:28:12.654Z,6.77
2018-06-08T13:30:41.805Z,8.57
2018-06-08T13:33:10.888Z,9.80
2018-06-08T13:35:39.867Z,13.60
2018-06-08T13:38:09.468Z,6.80
2018-06-08T13:40:38.583Z,8.97
2018-06-08T13:43:08.136Z,8.57
2018-06-08T13:45:37.286Z,6.60
2018-06-08T13:48:06.352Z,7.53
2018-06-08T13:50:35.460Z,8.73
2018-06-08T13:53:04.324Z,7.50
2018-06-08T13:55:33.557Z,17.43
2018-06-08T13:58:02.942Z,7.63
2018-06-08T14:00:32.657Z,7.00
2018-06-08T14:03:01.846Z,10.23
2018-06-08T14:05:30.929Z,18.13
2018-06-08T14:07:59.936Z,10.67
2018-06-08T14:10:29.124Z,16.97
2018-06-08T14:12:58.410Z,6.30
2018-06-08T14:15:27.496Z,6.80
2018-06-08T14:17:57.248Z,9.13
2018-06-08T14:20:27.033Z,7.13
2018-06-08T14:22:57.264Z,7.97
2018-06-08T14:25:26.805Z,7.67
2018-06-08T14:27:56.424Z,10.27
2018-06-08T14:30:25.737Z,8.33
2018-06-08T14:32:54.920Z,7.67
2018-06-08T14:35:24.072Z,14.27
2018-06-08T14:37:53.959Z,11.83
2018-06-08T14:40:23.495Z,12.43
2018-06-08T14:42:53.258Z,8.90
2018-06-08T14:45:22.376Z,7.77
2018-06-08T14:47:51.512Z,13.93
2018-06-08T14:50:20.477Z,12.13
2018-06-08T14:52:50.366Z,13.00
2018-06-08T14:55:19.493Z,5.73
2018-06-08T14:57:48.736Z,11.17
2018-06-08T15:00:18.328Z,11.00
2018-06-08T15:02:47.474Z,6.10
2018-06-08T15:05:16.888Z,6.40
2018-06-08T15:07:46.193Z,12.80
2018-06-08T15:10:15.216Z,9.07
2018-06-08T15:12:44.392Z,11.53
2018-06-08T15:15:13.875Z,6.93
2018-06-08T15:17:43.743Z,9.70
2018-06-08T15:20:13.373Z,5.90
2018-06-08T15:22:42.633Z,8.57
2018-06-08T15:25:11.844Z,9.03
2018-06-08T15:27:41.319Z,15.73
2018-06-08T15:30:10.616Z,18.93
2018-06-08T15:32:40.211Z,8.40
2018-06-08T15:35:09.448Z,9.00
2018-06-08T15:37:38.801Z,9.27
2018-06-08T15:40:07.808Z,8.57
2018-06-08T15:42:37.398Z,6.73
2018-06-08T15:45:07.154Z,10.03
2018-06-08T15:47:37.032Z,11.00
2018-06-08T15:50:06.172Z,8.20
2018-06-08T15:52:35.619Z,7.53
2018-06-08T15:55:04.965Z,11.10
2018-06-08T15:57:35.024Z,11.40
2018-06-08T16:00:04.159Z,22.33
2018-06-08T16:02:34.033Z,11.00
2018-06-08T16:05:03.194Z,17.17
2018-06-08T16:07:32.291Z,15.33
2018-06-08T16:10:02.155Z,9.43
2018-06-08T16:12:31.299Z,17.50
2018-06-08T16:15:00.884Z,7.43
2018-06-08T16:17:29.912Z,8.40
2018-06-08T16:19:59.061Z,15.33
2018-06-08T16:22:28.345Z,9.80
2018-06-08T16:24:58.671Z,7.63
2018-06-08T16:27:27.844Z,10.63
2018-06-08T16:29:57.291Z,13.10
2018-06-08T16:32:27.031Z,9.27
2018-06-08T16:34:56.194Z,20.30
2018-06-08T16:37:25.438Z,13.73
2018-06-08T16:39:54.496Z,6.37
2018-06-08T16:42:24.192Z,22.03
2018-06-08T16:44:53.811Z,13.33
2018-06-08T16:47:22.985Z,10.43
2018-06-08T16:49:52.640Z,9.13
2018-06-08T16:52:21.761Z,16.00
2018-06-08T16:54:51.000Z,7.37
2018-06-08T16:57:20.178Z,15.60
2018-06-08T16:59:50.011Z,9.77
2018-06-08T17:02:19.130Z,18.47
2018-06-08T17:04:48.180Z,9.50
2018-06-08T17:07:17.412Z,8.77
2018-06-08T17:09:46.592Z,13.23
2018-06-08T17:12:16.373Z,9.67
2018-06-08T17:14:45.547Z,10.50
2018-06-08T17:17:15.289Z,7.37
2018-06-08T17:19:44.738Z,10.27
2018-06-08T17:22:13.804Z,21.20
2018-06-08T17:24:42.912Z,15.10
2018-06-08T17:27:12.013Z,8.17
2018-06-08T17:29:41.090Z,12.40
2018-06-08T17:32:10.142Z,15.13
2018-06-08T17:34:39.812Z,8.70
2018-06-08T17:37:08.902Z,6.30
2018-06-08T17:39:38.529Z,7.67
2018-06-08T17:42:07.500Z,13.30
2018-06-08T17:44:36.616Z,14.13
2018-06-08T17:47:05.567Z,8.80
2018-06-08T17:49:35.217Z,15.33
2018-06-08T17:52:04.293Z,19.77
2018-06-08T17:54:34.352Z,11.63
2018-06-08T17:57:03.537Z,17.37
2018-06-08T17:59:32.598Z,11.87
2018-06-08T18:02:02.104Z,9.60
2018-06-08T18:04:31.192Z,7.50
2018-06-08T18:07:00.421Z,12.27
2018-06-08T18:09:29.474Z,10.73
2018-06-08T18:11:58.716Z,14.70
2018-06-08T18:14:28.029Z,14.80
2018-06-08T18:16:57.828Z,10.60
2018-06-08T18:19:26.799Z,9.20
2018-06-08T18:21:56.404Z,6.53
2018-06-08T18:24:25.601Z,13.43
2018-06-08T18:26:54.577Z,28.30
2018-06-08T18:29:23.892Z,10.80
2018-06-08T18:31:53.407Z,9.97
2018-06-08T18:34:22.943Z,20.43
2018-06-08T18:36:52.117Z,9.20
2018-06-08T18:39:21.233Z,11.90
2018-06-08T18:41:50.295Z,13.50
2018-06-08T18:44:19.485Z,9.47
2018-06-08T18:46:48.653Z,11.90
2018-06-08T18:49:17.773Z,11.00
2018-06-08T18:51:47.758Z,14.33
2018-06-08T18:54:16.952Z,14.77
2018-06-08T18:56:46.092Z,6.63
2018-06-08T18:59:15.324Z,8.50
2018-06-08T19:01:44.724Z,10.40
2018-06-08T19:04:13.904Z,9.33
2018-06-08T19:06:43.056Z,14.17
2018-06-08T19:09:12.321Z,13.57
2018-06-08T19:11:42.121Z,19.37
2018-06-08T19:14:11.878Z,11.60
2018-06-08T19:16:41.693Z,9.47
2018-06-08T19:19:11.724Z,10.53
2018-06-08T19:21:41.353Z,18.87
2018-06-08T19:24:11.857Z,21.80
2018-06-08T19:26:41.038Z,10.00
2018-06-08T19:29:10.527Z,9.23
2018-06-08T19:31:40.418Z,20.33
2018-06-08T19:34:12.110Z,14.53
2018-06-08T19:36:41.601Z,10.67
2018-06-08T19:39:11.693Z,10.87
2018-06-08T19:41:42.520Z,12.33
2018-06-08T19:44:12.787Z,9.17
2018-06-08T19:46:43.016Z,8.20
2018-06-08T19:49:14.139Z,17.23
2018-06-08T19:51:44.097Z,6.33
2018-06-08T19:54:14.193Z,15.70
2018-06-08T19:56:44.201Z,8.37
2018-06-08T19:59:13.860Z,9.57
2018-06-08T20:01:43.025Z,16.20
2018-06-08T20:04:12.765Z,13.50
2018-06-08T20:06:42.241Z,12.93
2018-06-08T20:09:11.712Z,10.10
2018-06-08T20:11:41.240Z,12.20
2018-06-08T20:14:11.203Z,10.27
2018-06-08T20:16:42.233Z,6.37
2018-06-08T20:19:12.679Z,6.53
2018-06-08T20:21:42.229Z,17.13
2018-06-08T20:24:11.591Z,7.70
2018-06-08T20:26:41.184Z,10.13
2018-06-08T20:29:10.464Z,11.80
2018-06-08T20:31:39.699Z,14.20
2018-06-08T20:34:09.383Z,16.17
2018-06-08T20:36:38.669Z,10.53
2018-06-08T20:39:09.068Z,12.50
2018-06-08T20:41:39.766Z,12.43
2018-06-08T20:44:09.488Z,21.93
2018-06-08T20:46:39.245Z,17.93
2018-06-08T20:49:08.569Z,6.83
2018-06-08T20:51:38.908Z,14.20
2018-06-08T20:54:08.336Z,8.90
2018-06-08T20:56:38.056Z,6.80
2018-06-08T20:59:08.168Z,12.67
2018-06-08T21:01:37.585Z,7.87
2018-06-08T21:04:07.425Z,14.03
2018-06-08T21:06:37.407Z,7.37
2018-06-08T21:09:07.704Z,9.40
2018-06-08T21:11:37.787Z,7.53
2018-06-08T21:14:07.065Z,7.63
2018-06-08T21:16:36.169Z,5.30
2018-06-08T21:19:05.526Z,10.23
2018-06-08T21:21:35.327Z,8.47
2018-06-08T21:24:05.064Z,7.13
2018-06-08T21:26:35.118Z,4.90
2018-06-08T21:29:04.509Z,6.63
2018-06-08T21:31:34.612Z,7.77
2018-06-08T21:34:03.863Z,8.70
2018-06-08T21:36:33.693Z,9.13
2018-06-08T21:39:02.902Z,26.67
2018-06-08T21:41:32.045Z,6.43
2018-06-08T21:44:01.482Z,9.03
2018-06-08T21:46:30.765Z,7.90
2018-06-08T21:48:59.593Z,7.30
2018-06-08T21:51:28.814Z,8.77
2018-06-08T21:53:58.224Z,10.73
2018-06-08T21:56:28.082Z,14.90
2018-06-08T21:58:57.248Z,6.10
2018-06-08T22:01:26.592Z,12.40
2018-06-08T22:03:56.160Z,7.27
2018-06-08T22:06:25.925Z,5.90
2018-06-08T22:08:55.168Z,7.13
2018-06-08T22:11:24.597Z,4.60
2018-06-08T22:13:54.257Z,5.83
2018-06-08T22:16:24.418Z,14.47
2018-06-08T22:18:55.428Z,12.83
2018-06-08T22:21:25.404Z,6.10
2018-06-08T22:23:55.224Z,8.90
2018-06-08T22:26:25.065Z,9.83
2018-06-08T22:28:55.076Z,10.00
2018-06-08T22:31:24.357Z,6.17
2018-06-08T22:33:53.480Z,21.03
2018-06-08T22:36:22.758Z,12.37
2018-06-08T22:38:52.203Z,10.30
2018-06-08T22:41:21.908Z,11.07
2018-06-08T22:43:51.618Z,19.97
2018-06-08T22:46:20.761Z,11.97
2018-06-08T22:48:50.083Z,11.47
2018-06-08T22:51:19.872Z,13.50
2018-06-08T22:53:48.997Z,10.67
2018-06-08T22:56:18.120Z,9.20
2018-06-08T22:58:47.763Z,9.67
2018-06-08T23:01:16.892Z,13.43
2018-06-08T23:03:46.064Z,13.77
2018-06-08T23:06:15.196Z,11.40
2018-06-08T23:08:44.350Z,11.73
2018-06-08T23:11:13.379Z,14.20
2018-06-08T23:13:42.469Z,16.90
2018-06-08T23:16:12.145Z,13.07
2018-06-08T23:18:41.325Z,15.83
2018-06-08T23:21:11.202Z,21.20
2018-06-08T23:23:40.181Z,14.80
2018-06-08T23:26:10.077Z,21.10
2018-06-08T23:28:39.580Z,14.73
2018-06-08T23:31:08.715Z,14.60
2018-06-08T23:33:37.820Z,25.80
2018-06-08T23:36:07.787Z,12.00
2018-06-08T23:38:37.315Z,12.97
2018-06-08T23:41:06.912Z,12.53
2018-06-08T23:43:36.264Z,10.93
2018-06-08T23:46:06.357Z,8.63
2018-06-08T23:48:36.036Z,15.03
2018-06-08T23:51:05.160Z,14.67
2018-06-08T23:53:34.075Z,16.87
2018-06-08T23:56:03.562Z,6.97
2018-06-08T23:58:32.988Z,14.57
